createdAt,value
2018-12-17T00:00:56.088Z,8.63
2018-12-17T00:03:31.146Z,8.23
2018-12-17T00:06:00.022Z,7.17
2018-12-17T00:08:32.709Z,8.43
2018-12-17T00:11:01.648Z,8.63
2018-12-17T00:13:35.999Z,8.50
2018-12-17T00:16:05.114Z,9.90
2018-12-17T00:18:37.496Z,9.60
2018-12-17T00:21:06.143Z,9.80
2018-12-17T00:23:39.351Z,8.70
2018-12-17T00:26:07.862Z,9.40
2018-12-17T00:28:40.658Z,9.50
2018-12-17T00:31:09.480Z,8.73
2018-12-17T00:33:38.195Z,19.97
2018-12-17T00:36:06.757Z,16.50
2018-12-17T00:38:36.327Z,9.73
2018-12-17T00:41:04.885Z,9.83
2018-12-17T00:43:34.427Z,9.00
2018-12-17T00:46:04.003Z,8.87
2018-12-17T00:48:32.710Z,9.40
2018-12-17T00:51:01.659Z,8.73
2018-12-17T00:53:30.942Z,8.03
2018-12-17T00:56:00.635Z,8.30
2018-12-17T00:58:29.339Z,7.47
2018-12-17T01:01:06.076Z,8.77
2018-12-17T01:03:34.953Z,7.33
2018-12-17T01:06:06.952Z,8.10
2018-12-17T01:08:36.372Z,7.67
2018-12-17T01:11:11.538Z,7.47
2018-12-17T01:13:40.795Z,5.80
2018-12-17T01:16:13.571Z,4.97
2018-12-17T01:18:42.548Z,5.53
2018-12-17T01:21:19.184Z,4.93
2018-12-17T01:23:48.269Z,4.67
2018-12-17T01:26:18.491Z,5.50
2018-12-17T01:28:47.696Z,6.50
2018-12-17T01:31:20.483Z,6.03
2018-12-17T01:33:49.577Z,6.63
2018-12-17T01:36:23.287Z,7.10
2018-12-17T01:38:52.256Z,7.27
2018-12-17T01:41:25.531Z,7.73
2018-12-17T01:43:54.759Z,8.17
2018-12-17T01:46:31.596Z,7.93
2018-12-17T01:49:00.591Z,8.17
2018-12-17T01:51:29.361Z,7.47
2018-12-17T01:53:58.299Z,6.83
2018-12-17T01:56:34.561Z,8.43
2018-12-17T01:59:03.708Z,7.50
2018-12-17T02:01:36.843Z,7.93
2018-12-17T02:04:05.372Z,5.93
2018-12-17T02:06:37.930Z,6.30
2018-12-17T02:09:07.291Z,7.23
2018-12-17T02:11:40.908Z,8.53
2018-12-17T02:14:09.449Z,7.37
2018-12-17T02:16:42.224Z,7.10
2018-12-17T02:19:11.173Z,7.17
2018-12-17T02:21:44.134Z,7.10
2018-12-17T02:24:13.322Z,7.20
2018-12-17T02:26:45.487Z,7.87
2018-12-17T02:29:14.662Z,7.70
2018-12-17T02:31:43.663Z,8.60
2018-12-17T02:34:12.921Z,7.67
2018-12-17T02:36:41.478Z,9.27
2018-12-17T02:39:09.989Z,8.63
2018-12-17T02:41:39.246Z,7.20
2018-12-17T02:44:07.894Z,7.70
2018-12-17T02:46:37.835Z,7.20
2018-12-17T02:49:07.507Z,7.83
2018-12-17T02:51:38.136Z,7.73
2018-12-17T02:54:06.694Z,8.13
2018-12-17T02:56:35.939Z,6.97
2018-12-17T02:59:07.052Z,7.83
2018-12-17T03:01:36.318Z,7.17
2018-12-17T03:06:38.863Z,7.87
2018-12-17T03:11:41.376Z,8.57
2018-12-17T03:14:14.047Z,8.90
2018-12-17T03:16:42.986Z,9.53
2018-12-17T03:19:11.770Z,6.70
2018-12-17T03:21:40.698Z,8.23
2018-12-17T03:24:09.793Z,7.07
2018-12-17T03:26:38.738Z,6.97
2018-12-17T03:29:07.716Z,6.33
2018-12-17T03:31:36.990Z,5.90
2018-12-17T03:34:06.224Z,7.03
2018-12-17T03:36:35.179Z,5.50
2018-12-17T03:39:06.482Z,7.07
2018-12-17T03:41:36.297Z,7.77
2018-12-17T03:44:05.264Z,7.10
2018-12-17T03:46:34.050Z,6.77
2018-12-17T03:49:03.280Z,7.17
2018-12-17T03:51:35.940Z,7.47
2018-12-17T03:54:04.473Z,6.60
2018-12-17T03:56:38.222Z,6.63
2018-12-17T03:59:07.159Z,7.70
2018-12-17T04:01:41.358Z,8.20
2018-12-17T04:04:10.302Z,6.43
2018-12-17T04:06:43.603Z,6.33
2018-12-17T04:09:12.880Z,6.17
2018-12-17T04:11:47.330Z,4.93
2018-12-17T04:14:16.300Z,6.30
2018-12-17T04:16:49.562Z,6.40
2018-12-17T04:19:18.513Z,6.73
2018-12-17T04:21:52.966Z,5.87
2018-12-17T04:24:22.303Z,5.77
2018-12-17T04:26:54.886Z,7.00
2018-12-17T04:29:23.852Z,6.57
2018-12-17T04:31:55.752Z,7.03
2018-12-17T04:34:24.682Z,7.50
2018-12-17T04:36:53.978Z,7.70
2018-12-17T04:39:23.040Z,7.37
2018-12-17T04:41:51.993Z,6.87
2018-12-17T04:44:20.805Z,7.30
2018-12-17T04:46:49.771Z,7.27
2018-12-17T04:49:18.430Z,6.90
2018-12-17T04:51:47.217Z,6.63
2018-12-17T04:54:16.147Z,5.77
2018-12-17T04:56:45.113Z,7.07
2018-12-17T04:59:14.778Z,5.40
2018-12-17T05:01:43.986Z,4.87
2018-12-17T05:04:16.413Z,4.77
2018-12-17T05:06:45.637Z,5.77
2018-12-17T05:09:19.558Z,5.23
2018-12-17T05:11:48.535Z,4.80
2018-12-17T05:14:24.295Z,5.50
2018-12-17T05:16:53.295Z,5.37
2018-12-17T05:19:24.341Z,5.13
2018-12-17T05:21:52.860Z,5.87
2018-12-17T05:24:26.162Z,4.50
2018-12-17T05:26:54.990Z,4.77
2018-12-17T05:29:27.988Z,5.40
2018-12-17T05:32:02.187Z,4.60
2018-12-17T05:34:31.453Z,4.60
2018-12-17T05:37:00.409Z,4.90
2018-12-17T05:39:36.287Z,3.80
2018-12-17T05:42:06.683Z,3.63
2018-12-17T05:44:37.259Z,3.93
2018-12-17T05:47:05.792Z,3.60
2018-12-17T05:49:42.072Z,4.60
2018-12-17T05:52:11.036Z,3.57
2018-12-17T05:54:43.204Z,2.90
2018-12-17T05:57:12.490Z,3.13
2018-12-17T05:59:44.490Z,3.57
2018-12-17T06:02:13.508Z,3.30
2018-12-17T06:04:47.100Z,12.47
2018-12-17T06:07:16.043Z,7.07
2018-12-17T06:09:48.762Z,9.83
2018-12-17T06:12:18.012Z,3.50
2018-12-17T06:14:52.119Z,2.43
2018-12-17T06:17:21.030Z,16.53
2018-12-17T06:19:54.456Z,17.23
2018-12-17T06:22:23.433Z,14.47
2018-12-17T06:24:56.338Z,18.50
2018-12-17T06:27:25.780Z,50.70
2018-12-17T06:29:54.754Z,31.10
2018-12-17T06:32:23.762Z,22.33
2018-12-17T06:34:52.569Z,13.03
2018-12-17T06:37:21.086Z,24.27
2018-12-17T06:39:50.028Z,10.87
2018-12-17T06:42:18.967Z,15.43
2018-12-17T06:44:47.656Z,5.30
2018-12-17T06:47:16.327Z,4.90
2018-12-17T06:49:45.568Z,4.90
2018-12-17T06:52:16.135Z,8.03
2018-12-17T06:54:45.112Z,5.20
2018-12-17T06:57:18.639Z,5.70
2018-12-17T06:59:47.674Z,5.70
2018-12-17T07:02:21.723Z,6.40
2018-12-17T07:04:50.695Z,5.13
2018-12-17T07:07:23.794Z,4.77
2018-12-17T07:09:52.418Z,4.27
2018-12-17T07:12:25.197Z,4.63
2018-12-17T07:14:54.494Z,4.00
2018-12-17T07:17:30.328Z,6.03
2018-12-17T07:19:59.764Z,4.17
2018-12-17T07:22:31.960Z,5.20
2018-12-17T07:25:00.616Z,4.23
2018-12-17T07:27:37.628Z,4.10
2018-12-17T07:30:06.464Z,4.77
2018-12-17T07:32:37.437Z,3.80
2018-12-17T07:35:06.510Z,2.73
2018-12-17T07:40:10.004Z,2.33
2018-12-17T07:42:41.686Z,2.60
2018-12-17T07:45:10.257Z,2.50
2018-12-17T07:47:43.081Z,2.87
2018-12-17T07:50:11.883Z,2.97
2018-12-17T07:52:45.831Z,3.50
2018-12-17T07:55:14.379Z,4.10
2018-12-17T08:00:16.939Z,2.93
2018-12-17T08:02:46.752Z,3.30
2018-12-17T08:05:18.243Z,2.80
2018-12-17T08:07:47.232Z,2.23
2018-12-17T08:10:16.218Z,2.93
2018-12-17T08:12:45.042Z,3.00
2018-12-17T08:15:14.092Z,3.40
2018-12-17T08:17:43.153Z,3.00
2018-12-17T08:20:12.015Z,3.13
2018-12-17T08:22:41.252Z,3.27
2018-12-17T08:25:10.228Z,3.43
2018-12-17T08:27:39.486Z,4.03
2018-12-17T08:30:12.467Z,3.90
2018-12-17T08:32:41.454Z,3.87
2018-12-17T08:35:16.034Z,3.40
2018-12-17T08:37:44.996Z,2.53
2018-12-17T08:40:16.880Z,2.70
2018-12-17T08:42:45.843Z,2.87
2018-12-17T08:45:18.627Z,2.50
2018-12-17T08:47:47.918Z,2.57
2018-12-17T08:50:21.855Z,2.67
2018-12-17T08:52:50.425Z,2.60
2018-12-17T08:55:23.634Z,1.80
2018-12-17T08:57:52.590Z,2.13
2018-12-17T09:00:28.610Z,2.40
2018-12-17T09:02:57.868Z,2.57
2018-12-17T09:05:29.991Z,3.20
2018-12-17T09:07:58.954Z,3.07
2018-12-17T09:10:36.052Z,3.80
2018-12-17T09:13:04.664Z,3.00
2018-12-17T09:15:35.024Z,3.10
2018-12-17T09:18:04.005Z,3.07
2018-12-17T09:20:36.411Z,2.50
2018-12-17T09:23:05.422Z,2.50
2018-12-17T09:25:38.937Z,5.27
2018-12-17T09:28:08.194Z,2.77
2018-12-17T09:30:42.573Z,2.33
2018-12-17T09:33:11.170Z,2.03
2018-12-17T09:35:45.045Z,2.50
2018-12-17T09:38:13.650Z,2.80
2018-12-17T09:40:47.898Z,2.30
2018-12-17T09:43:16.884Z,2.50
2018-12-17T09:45:50.408Z,2.40
2018-12-17T09:48:19.661Z,2.17
2018-12-17T09:50:54.666Z,2.83
2018-12-17T09:53:23.718Z,2.80
2018-12-17T09:55:56.335Z,2.33
2018-12-17T09:58:25.311Z,2.27
2018-12-17T10:00:58.866Z,2.47
2018-12-17T10:03:28.259Z,2.90
2018-12-17T10:06:02.015Z,3.20
2018-12-17T10:08:30.575Z,3.10
2018-12-17T10:11:05.128Z,3.07
2018-12-17T10:13:33.715Z,3.73
2018-12-17T10:16:07.896Z,3.87
2018-12-17T10:18:37.119Z,3.57
2018-12-17T10:23:40.568Z,2.63
2018-12-17T10:26:15.155Z,2.70
2018-12-17T10:28:44.148Z,3.03
2018-12-17T10:31:18.084Z,2.67
2018-12-17T10:33:46.928Z,2.70
2018-12-17T10:36:20.776Z,3.03
2018-12-17T10:38:49.890Z,2.20
2018-12-17T10:41:26.087Z,2.63
2018-12-17T10:43:55.124Z,2.40
2018-12-17T10:46:25.907Z,2.40
2018-12-17T10:48:55.199Z,2.20
2018-12-17T10:51:28.104Z,2.20
2018-12-17T10:53:57.143Z,2.27
2018-12-17T10:56:30.581Z,2.60
2018-12-17T10:59:00.243Z,2.57
2018-12-17T11:01:38.503Z,2.17
2018-12-17T11:04:13.656Z,2.57
2018-12-17T11:06:42.228Z,2.33
2018-12-17T11:09:10.806Z,1.90
2018-12-17T11:11:40.102Z,2.17
2018-12-17T11:14:08.811Z,3.00
2018-12-17T11:16:41.316Z,3.80
2018-12-17T11:19:10.287Z,2.60
2018-12-17T11:21:43.399Z,3.43
2018-12-17T11:24:12.465Z,3.30
2018-12-17T11:26:46.264Z,2.60
2018-12-17T11:29:15.538Z,2.33
2018-12-17T11:31:49.583Z,2.17
2018-12-17T11:34:18.156Z,2.30
2018-12-17T11:36:52.217Z,2.33
2018-12-17T11:39:21.337Z,1.90
2018-12-17T11:41:55.259Z,2.00
2018-12-17T11:44:24.594Z,2.30
2018-12-17T11:46:59.464Z,2.13
2018-12-17T11:49:28.084Z,1.80
2018-12-17T11:52:02.699Z,2.00
2018-12-17T11:54:31.295Z,2.63
2018-12-17T11:58:17.955Z,2.00
2018-12-17T12:00:54.004Z,1.60
2018-12-17T12:03:23.342Z,2.20
2018-12-17T12:05:52.345Z,1.80
2018-12-17T12:08:21.439Z,2.13
2018-12-17T12:10:50.492Z,2.00
2018-12-17T12:13:19.506Z,2.27
2018-12-17T12:15:49.894Z,2.30
2018-12-17T12:18:18.981Z,2.30
2018-12-17T12:20:47.998Z,2.37
2018-12-17T12:23:25.150Z,2.47
2018-12-17T12:25:54.241Z,2.60
2018-12-17T12:28:23.500Z,2.80
2018-12-17T12:30:52.388Z,2.57
2018-12-17T12:33:29.152Z,2.27
2018-12-17T12:35:58.139Z,2.40
2018-12-17T12:38:28.213Z,2.20
2018-12-17T12:53:48.540Z,2.30
2018-12-17T12:56:17.127Z,2.60
2018-12-17T12:58:46.224Z,2.77
2018-12-17T13:01:15.521Z,2.13
2018-12-17T13:03:44.159Z,2.37
2018-12-17T13:06:13.170Z,3.07
2018-12-17T13:08:44.186Z,3.23
2018-12-17T13:11:14.395Z,2.40
2018-12-17T13:13:46.601Z,3.00
2018-12-17T13:16:15.468Z,2.70
2018-12-17T13:18:49.731Z,3.00
2018-12-17T13:21:18.753Z,2.90
2018-12-17T13:23:53.644Z,2.43
2018-12-17T13:26:22.199Z,2.43
2018-12-17T13:28:58.671Z,2.97
2018-12-17T13:31:27.338Z,2.73
2018-12-17T13:33:57.980Z,3.00
2018-12-17T13:36:27.042Z,2.17
2018-12-17T13:39:03.072Z,2.57
2018-12-17T13:41:31.633Z,4.07
2018-12-17T13:44:05.357Z,3.00
2018-12-17T13:46:34.332Z,2.97
2018-12-17T13:49:08.816Z,2.90
2018-12-17T13:51:42.177Z,2.80
2018-12-17T13:54:15.032Z,2.10
2018-12-17T13:56:44.026Z,2.77
2018-12-17T13:59:15.594Z,3.00
2018-12-17T14:01:51.231Z,3.33
2018-12-17T14:04:17.553Z,2.03
2018-12-17T14:06:47.543Z,2.70
2018-12-17T14:09:19.103Z,2.87
2018-12-17T14:11:49.107Z,2.63
2018-12-17T14:14:22.361Z,2.93
2018-12-17T14:16:57.496Z,3.97
2018-12-17T14:19:26.954Z,2.97
2018-12-17T14:21:58.720Z,2.77
2018-12-17T14:24:28.918Z,2.70
2018-12-17T14:26:58.039Z,2.87
2018-12-17T14:29:28.569Z,2.87
2018-12-17T14:31:58.170Z,2.80
2018-12-17T14:34:34.547Z,3.13
2018-12-17T14:37:03.947Z,3.20
2018-12-17T14:39:34.831Z,3.30
2018-12-17T14:42:11.336Z,2.80
2018-12-17T14:44:40.337Z,3.03
2018-12-17T14:47:09.013Z,3.03
2018-12-17T14:49:41.755Z,3.20
2018-12-17T14:52:10.887Z,3.13
2018-12-17T14:57:11.543Z,3.10
2018-12-17T14:59:44.627Z,3.23
2018-12-17T15:02:14.559Z,2.73
2018-12-17T15:04:50.608Z,3.63
2018-12-17T15:07:19.761Z,3.30
2018-12-17T15:09:51.562Z,3.27
2018-12-17T15:12:20.215Z,3.60
2018-12-17T15:14:54.548Z,3.63
2018-12-17T15:17:23.198Z,3.23
2018-12-17T15:19:56.975Z,3.60
2018-12-17T15:22:26.262Z,3.47
2018-12-17T15:25:03.030Z,3.43
2018-12-17T15:27:31.837Z,3.13
2018-12-17T15:30:02.925Z,3.50
2018-12-17T15:32:31.477Z,3.83
2018-12-17T15:35:04.754Z,3.90
2018-12-17T15:37:38.231Z,3.83
2018-12-17T15:40:09.925Z,3.40
2018-12-17T15:42:40.911Z,3.70
2018-12-17T15:45:12.745Z,3.77
2018-12-17T15:47:41.764Z,3.73
2018-12-17T15:50:15.890Z,4.13
2018-12-17T15:52:44.909Z,3.67
2018-12-17T15:55:18.747Z,4.07
2018-12-17T15:57:47.832Z,3.87
2018-12-17T16:00:24.404Z,4.67
2018-12-17T16:02:53.785Z,4.77
2018-12-17T16:05:23.125Z,3.80
2018-12-17T16:07:52.207Z,4.37
2018-12-17T16:10:25.981Z,3.80
2018-12-17T16:12:54.716Z,4.23
2018-12-17T16:15:31.469Z,4.03
2018-12-17T16:18:00.511Z,4.33
2018-12-17T16:20:32.735Z,4.07
2018-12-17T16:23:01.312Z,4.33
2018-12-17T16:25:35.117Z,4.20
2018-12-17T16:28:04.576Z,4.27
2018-12-17T16:30:36.193Z,4.67
2018-12-17T16:33:04.791Z,3.63
2018-12-17T16:37:53.973Z,4.20
2018-12-17T16:40:22.769Z,4.80
2018-12-17T16:42:51.878Z,4.23
2018-12-17T16:45:20.552Z,4.40
2018-12-17T16:47:49.603Z,4.17
2018-12-17T16:50:18.458Z,3.97
2018-12-17T16:52:48.480Z,4.30
2018-12-17T16:55:17.335Z,4.73
2018-12-17T16:57:51.987Z,4.00
2018-12-17T17:00:20.579Z,4.37
2018-12-17T17:02:54.671Z,4.30
2018-12-17T17:05:23.859Z,4.20
2018-12-17T17:08:00.427Z,4.83
2018-12-17T17:10:30.231Z,5.00
2018-12-17T17:13:01.096Z,5.10
2018-12-17T17:15:29.777Z,5.50
2018-12-17T17:18:04.551Z,4.50
2018-12-17T17:20:33.603Z,4.60
2018-12-17T17:23:07.459Z,5.17
2018-12-17T17:25:37.494Z,5.33
2018-12-17T17:28:10.764Z,4.73
2018-12-17T17:30:39.360Z,4.97
2018-12-17T17:33:13.093Z,4.43
2018-12-17T17:35:41.639Z,4.07
2018-12-17T17:38:16.893Z,4.23
2018-12-17T17:40:45.923Z,3.70
2018-12-17T17:43:18.819Z,4.67
2018-12-17T17:45:48.097Z,5.03
2018-12-17T17:48:20.932Z,4.07
2018-12-17T17:50:50.162Z,3.50
2018-12-17T17:53:23.267Z,4.13
2018-12-17T17:55:52.333Z,4.00
2018-12-17T17:58:28.606Z,4.50
2018-12-17T18:00:57.896Z,4.03
2018-12-17T18:03:29.049Z,4.03
2018-12-17T18:06:00.432Z,3.80
2018-12-17T18:10:52.181Z,3.83
2018-12-17T18:13:20.787Z,4.07
2018-12-17T18:15:50.080Z,4.30
2018-12-17T18:18:18.669Z,4.23
2018-12-17T18:20:47.336Z,4.37
2018-12-17T18:23:16.184Z,4.33
2018-12-17T18:25:45.192Z,5.03
2018-12-17T18:28:13.752Z,4.10
2018-12-17T18:30:43.340Z,3.47
2018-12-17T18:33:12.527Z,4.17
2018-12-17T18:35:46.774Z,4.00
2018-12-17T18:38:16.089Z,4.47
2018-12-17T18:40:52.121Z,6.83
2018-12-17T18:43:20.718Z,4.03
2018-12-17T18:45:52.213Z,3.80
2018-12-17T18:48:21.233Z,4.93
2018-12-17T18:50:55.298Z,5.63
2018-12-17T18:53:24.215Z,4.50
2018-12-17T18:55:57.360Z,4.60
2018-12-17T18:58:25.942Z,4.63
2018-12-17T19:00:59.414Z,4.17
2018-12-17T19:03:28.007Z,3.87
2018-12-17T19:06:02.131Z,3.70
2018-12-17T19:08:31.385Z,4.23
2018-12-17T19:11:04.803Z,3.47
2018-12-17T19:13:34.042Z,4.20
2018-12-17T19:16:12.177Z,3.70
2018-12-17T19:18:41.420Z,3.40
2018-12-17T19:21:13.157Z,4.10
2018-12-17T19:23:42.190Z,3.50
2018-12-17T19:26:15.048Z,4.77
2018-12-17T19:28:44.100Z,4.87
2018-12-17T19:33:34.006Z,4.67
2018-12-17T19:36:02.544Z,4.10
2018-12-17T19:38:31.191Z,4.00
2018-12-17T19:41:00.232Z,3.70
2018-12-17T19:43:28.918Z,3.73
2018-12-17T19:45:57.598Z,4.40
2018-12-17T19:48:26.443Z,4.60
2018-12-17T19:50:55.645Z,4.37
2018-12-17T19:53:28.357Z,3.87
2018-12-17T19:55:57.206Z,4.23
2018-12-17T19:58:30.739Z,4.37
2018-12-17T20:00:59.773Z,4.70
2018-12-17T20:03:34.345Z,4.43
2018-12-17T20:06:03.258Z,4.97
2018-12-17T20:08:36.953Z,4.90
2018-12-17T20:11:05.942Z,4.83
2018-12-17T20:13:39.747Z,5.37
2018-12-17T20:16:09.128Z,4.73
2018-12-17T20:18:43.407Z,5.07
2018-12-17T20:21:11.963Z,5.20
2018-12-17T20:23:48.569Z,4.57
2018-12-17T20:26:17.547Z,5.03
2018-12-17T20:28:47.836Z,5.70
2018-12-17T20:31:16.664Z,5.50
2018-12-17T20:33:50.936Z,6.80
2018-12-17T20:36:19.918Z,6.77
2018-12-17T20:38:53.763Z,6.17
2018-12-17T20:41:22.715Z,6.90
2018-12-17T20:43:56.663Z,7.73
2018-12-17T20:46:25.248Z,6.80
2018-12-17T20:48:58.675Z,6.30
2018-12-17T20:51:29.087Z,5.73
2018-12-17T20:54:02.939Z,6.97
2018-12-17T20:56:31.922Z,6.30
2018-12-17T20:59:06.607Z,6.53
2018-12-17T21:01:36.109Z,7.40
2018-12-17T21:04:09.851Z,7.57
2018-12-17T21:06:38.903Z,6.87
2018-12-17T21:09:12.563Z,6.80
2018-12-17T21:11:41.832Z,7.63
2018-12-17T21:14:14.637Z,6.57
2018-12-17T21:16:43.613Z,7.63
2018-12-17T21:19:16.286Z,6.73
2018-12-17T21:21:45.275Z,5.90
2018-12-17T21:24:19.161Z,6.27
2018-12-17T21:26:48.432Z,5.80
2018-12-17T21:29:22.167Z,5.70
2018-12-17T21:31:51.132Z,5.07
2018-12-17T21:34:25.333Z,5.87
2018-12-17T21:36:54.326Z,5.20
2018-12-17T21:42:02.874Z,6.60
2018-12-17T21:44:31.879Z,7.13
2018-12-17T21:47:00.689Z,5.63
2018-12-17T21:49:32.155Z,6.23
2018-12-17T21:52:01.176Z,6.87
2018-12-17T21:54:38.410Z,5.60
2018-12-17T21:57:07.367Z,5.37
2018-12-17T21:59:36.675Z,4.70
2018-12-17T22:02:06.083Z,5.43
2018-12-17T22:04:42.333Z,7.57
2018-12-17T22:10:29.051Z,6.27
2018-12-17T22:12:58.274Z,6.30
2018-12-17T22:15:41.196Z,8.67
2018-12-17T22:18:11.823Z,17.43
2018-12-17T22:20:45.508Z,9.73
2018-12-17T22:23:14.097Z,9.03
2018-12-17T22:25:43.330Z,10.30
2018-12-17T22:28:12.291Z,6.73
2018-12-17T22:30:41.303Z,7.50
2018-12-17T22:36:26.867Z,11.83
2018-12-17T22:39:00.876Z,11.53
2018-12-17T22:41:29.411Z,11.67
2018-12-17T22:44:02.578Z,10.83
2018-12-17T22:46:31.805Z,14.17
2018-12-17T22:49:04.758Z,6.97
2018-12-17T22:51:33.476Z,12.07
2018-12-17T22:54:07.487Z,8.47
2018-12-17T22:56:36.255Z,13.37
2018-12-17T23:01:38.974Z,18.00
2018-12-17T23:04:12.958Z,13.03
2018-12-17T23:06:41.547Z,14.93
2018-12-17T23:11:53.497Z,5.97
2018-12-17T23:14:33.599Z,5.57
2018-12-17T23:17:07.921Z,5.70
2018-12-17T23:19:42.973Z,6.17
2018-12-17T23:22:22.827Z,6.50
2018-12-17T23:24:51.992Z,7.90
2018-12-17T23:27:25.603Z,6.40
2018-12-17T23:29:54.570Z,16.50
2018-12-17T23:32:31.570Z,6.70
2018-12-17T23:35:00.717Z,23.40
2018-12-17T23:37:30.976Z,13.27
2018-12-17T23:40:00.219Z,10.67
2018-12-17T23:42:34.332Z,8.33
2018-12-17T23:45:03.340Z,6.57
2018-12-17T23:47:37.134Z,7.27
2018-12-17T23:50:06.946Z,6.63
2018-12-17T23:52:39.675Z,6.30
2018-12-17T23:55:08.654Z,7.50
2018-12-17T23:57:41.539Z,6.67
